sensor_id;sensor_type;location;lat;lon;timestamp;pressure;altitude;pressure_sealevel;temperature;humidity
79465;BME280;68932;47.410;8.232;2023-09-30T00:01:38;97696.60;;;18.10;69.28
79465;BME280;68932;47.410;8.232;2023-09-30T00:04:07;97690.66;;;18.09;69.13
79465;BME280;68932;47.410;8.232;2023-09-30T00:06:35;97692.73;;;18.08;69.28
79465;BME280;68932;47.410;8.232;2023-09-30T00:09:04;97697.72;;;18.08;69.14
79465;BME280;68932;47.410;8.232;2023-09-30T00:11:32;97705.73;;;18.08;69.23
79465;BME280;68932;47.410;8.232;2023-09-30T00:14:00;97705.44;;;18.07;69.20
79465;BME280;68932;47.410;8.232;2023-09-30T00:16:29;97707.45;;;18.06;69.20
79465;BME280;68932;47.410;8.232;2023-09-30T00:18:57;97708.38;;;18.06;69.18
79465;BME280;68932;47.410;8.232;2023-09-30T00:21:25;97705.56;;;18.05;69.38
79465;BME280;68932;47.410;8.232;2023-09-30T00:23:54;97707.19;;;18.05;69.37
79465;BME280;68932;47.410;8.232;2023-09-30T00:26:22;97705.02;;;18.03;69.73
79465;BME280;68932;47.410;8.232;2023-09-30T00:28:50;97704.09;;;18.02;69.88
79465;BME280;68932;47.410;8.232;2023-09-30T00:31:19;97706.08;;;18.01;69.89
79465;BME280;68932;47.410;8.232;2023-09-30T00:33:47;97710.57;;;18.01;69.72
79465;BME280;68932;47.410;8.232;2023-09-30T00:36:15;97711.73;;;18.00;69.53
79465;BME280;68932;47.410;8.232;2023-09-30T00:38:44;97704.85;;;18.00;69.54
79465;BME280;68932;47.410;8.232;2023-09-30T00:41:12;97708.70;;;17.98;69.57
79465;BME280;68932;47.410;8.232;2023-09-30T00:43:41;97709.50;;;17.94;69.79
79465;BME280;68932;47.410;8.232;2023-09-30T00:46:22;97709.66;;;17.92;70.09
79465;BME280;68932;47.410;8.232;2023-09-30T00:48:52;97699.92;;;17.90;69.96
79465;BME280;68932;47.410;8.232;2023-09-30T00:51:21;97690.89;;;17.88;70.06
79465;BME280;68932;47.410;8.232;2023-09-30T00:53:50;97684.73;;;17.85;70.16
79465;BME280;68932;47.410;8.232;2023-09-30T00:56:20;97685.67;;;17.82;70.07
79465;BME280;68932;47.410;8.232;2023-09-30T00:58:51;97680.58;;;17.79;70.01
79465;BME280;68932;47.410;8.232;2023-09-30T01:01:21;97686.16;;;17.78;70.15
79465;BME280;68932;47.410;8.232;2023-09-30T01:03:50;97692.14;;;17.76;70.27
79465;BME280;68932;47.410;8.232;2023-09-30T01:06:18;97688.07;;;17.76;70.18
79465;BME280;68932;47.410;8.232;2023-09-30T01:08:47;97684.41;;;17.76;70.23
79465;BME280;68932;47.410;8.232;2023-09-30T01:11:16;97682.05;;;17.74;70.33
79465;BME280;68932;47.410;8.232;2023-09-30T01:13:44;97681.52;;;17.72;70.20
79465;BME280;68932;47.410;8.232;2023-09-30T01:16:13;97678.71;;;17.70;70.50
79465;BME280;68932;47.410;8.232;2023-09-30T01:18:41;97680.20;;;17.69;70.53
79465;BME280;68932;47.410;8.232;2023-09-30T01:21:10;97677.34;;;17.69;70.65
79465;BME280;68932;47.410;8.232;2023-09-30T01:23:39;97678.27;;;17.69;70.84
79465;BME280;68932;47.410;8.232;2023-09-30T01:26:08;97679.55;;;17.68;70.73
79465;BME280;68932;47.410;8.232;2023-09-30T01:28:37;97680.25;;;17.69;70.56
79465;BME280;68932;47.410;8.232;2023-09-30T01:31:06;97678.76;;;17.67;70.72
79465;BME280;68932;47.410;8.232;2023-09-30T01:33:34;97676.34;;;17.67;70.77
79465;BME280;68932;47.410;8.232;2023-09-30T01:36:03;97674.02;;;17.67;70.51
79465;BME280;68932;47.410;8.232;2023-09-30T01:38:31;97667.40;;;17.68;70.51
79465;BME280;68932;47.410;8.232;2023-09-30T01:41:00;97664.25;;;17.67;70.71
79465;BME280;68932;47.410;8.232;2023-09-30T01:43:28;97661.85;;;17.68;70.88
79465;BME280;68932;47.410;8.232;2023-09-30T01:45:56;97660.37;;;17.69;70.76
79465;BME280;68932;47.410;8.232;2023-09-30T01:48:25;97666.11;;;17.70;71.00
79465;BME280;68932;47.410;8.232;2023-09-30T01:50:53;97665.39;;;17.70;71.33
79465;BME280;68932;47.410;8.232;2023-09-30T01:53:21;97660.42;;;17.70;71.02
79465;BME280;68932;47.410;8.232;2023-09-30T01:55:50;97663.69;;;17.69;71.00
79465;BME280;68932;47.410;8.232;2023-09-30T01:58:18;97664.99;;;17.69;71.03
79465;BME280;68932;47.410;8.232;2023-09-30T02:00:46;97669.02;;;17.67;70.79
79465;BME280;68932;47.410;8.232;2023-09-30T02:03:15;97666.16;;;17.67;70.95
79465;BME280;68932;47.410;8.232;2023-09-30T02:05:43;97668.48;;;17.67;71.00
79465;BME280;68932;47.410;8.232;2023-09-30T02:08:12;97669.41;;;17.67;70.98
79465;BME280;68932;47.410;8.232;2023-09-30T02:10:40;97671.52;;;17.67;71.02
79465;BME280;68932;47.410;8.232;2023-09-30T02:13:08;97670.83;;;17.67;71.02
79465;BME280;68932;47.410;8.232;2023-09-30T02:15:39;97665.52;;;17.67;70.88
79465;BME280;68932;47.410;8.232;2023-09-30T02:18:07;97663.07;;;17.66;71.24
79465;BME280;68932;47.410;8.232;2023-09-30T02:20:36;97664.89;;;17.66;71.23
79465;BME280;68932;47.410;8.232;2023-09-30T02:23:04;97664.18;;;17.66;71.36
79465;BME280;68932;47.410;8.232;2023-09-30T02:25:33;97664.71;;;17.66;71.39
79465;BME280;68932;47.410;8.232;2023-09-30T02:28:01;97664.52;;;17.66;71.32
79465;BME280;68932;47.410;8.232;2023-09-30T02:30:30;97660.56;;;17.64;71.57
79465;BME280;68932;47.410;8.232;2023-09-30T02:32:58;97665.80;;;17.63;71.39
79465;BME280;68932;47.410;8.232;2023-09-30T02:35:26;97669.52;;;17.63;71.14
79465;BME280;68932;47.410;8.232;2023-09-30T02:37:55;97677.33;;;17.63;71.19
79465;BME280;68932;47.410;8.232;2023-09-30T02:40:23;97680.13;;;17.64;71.12
79465;BME280;68932;47.410;8.232;2023-09-30T02:42:52;97670.22;;;17.63;70.96
79465;BME280;68932;47.410;8.232;2023-09-30T02:45:20;97672.13;;;17.62;70.85
79465;BME280;68932;47.410;8.232;2023-09-30T02:47:48;97674.41;;;17.60;70.62
79465;BME280;68932;47.410;8.232;2023-09-30T02:50:17;97673.33;;;17.57;70.64
79465;BME280;68932;47.410;8.232;2023-09-30T02:52:45;97673.39;;;17.56;70.59
79465;BME280;68932;47.410;8.232;2023-09-30T02:55:13;97670.13;;;17.55;70.39
79465;BME280;68932;47.410;8.232;2023-09-30T02:57:42;97672.66;;;17.55;70.52
79465;BME280;68932;47.410;8.232;2023-09-30T03:00:12;97667.54;;;17.55;70.45
79465;BME280;68932;47.410;8.232;2023-09-30T03:02:40;97671.66;;;17.54;70.55
79465;BME280;68932;47.410;8.232;2023-09-30T03:05:10;97667.19;;;17.52;70.56
79465;BME280;68932;47.410;8.232;2023-09-30T03:07:38;97667.19;;;17.52;70.71
79465;BME280;68932;47.410;8.232;2023-09-30T03:10:08;97667.16;;;17.53;70.71
79465;BME280;68932;47.410;8.232;2023-09-30T03:12:36;97675.86;;;17.53;70.65
79465;BME280;68932;47.410;8.232;2023-09-30T03:15:06;97673.00;;;17.51;70.88
79465;BME280;68932;47.410;8.232;2023-09-30T03:17:34;97672.45;;;17.49;70.70
79465;BME280;68932;47.410;8.232;2023-09-30T03:20:05;97674.70;;;17.48;70.83
79465;BME280;68932;47.410;8.232;2023-09-30T03:22:33;97675.79;;;17.47;71.18
79465;BME280;68932;47.410;8.232;2023-09-30T03:25:01;97677.70;;;17.48;71.17
79465;BME280;68932;47.410;8.232;2023-09-30T03:27:29;97678.25;;;17.47;71.13
79465;BME280;68932;47.410;8.232;2023-09-30T03:29:58;97675.12;;;17.44;71.40
79465;BME280;68932;47.410;8.232;2023-09-30T03:32:26;97678.95;;;17.43;71.29
79465;BME280;68932;47.410;8.232;2023-09-30T03:34:55;97679.97;;;17.42;71.28
79465;BME280;68932;47.410;8.232;2023-09-30T03:37:23;97681.52;;;17.40;71.39
79465;BME280;68932;47.410;8.232;2023-09-30T03:39:51;97686.19;;;17.40;71.57
79465;BME280;68932;47.410;8.232;2023-09-30T03:42:19;97685.93;;;17.38;71.38
79465;BME280;68932;47.410;8.232;2023-09-30T03:44:48;97689.97;;;17.36;71.50
79465;BME280;68932;47.410;8.232;2023-09-30T03:47:19;97689.52;;;17.35;71.62
79465;BME280;68932;47.410;8.232;2023-09-30T03:49:47;97685.05;;;17.36;71.67
79465;BME280;68932;47.410;8.232;2023-09-30T03:52:15;97680.53;;;17.35;71.66
79465;BME280;68932;47.410;8.232;2023-09-30T03:54:43;97680.73;;;17.34;71.52
79465;BME280;68932;47.410;8.232;2023-09-30T03:57:12;97680.45;;;17.34;71.48
79465;BME280;68932;47.410;8.232;2023-09-30T03:59:40;97671.27;;;17.33;71.57
79465;BME280;68932;47.410;8.232;2023-09-30T04:02:08;97663.98;;;17.31;71.56
79465;BME280;68932;47.410;8.232;2023-09-30T04:04:36;97656.13;;;17.30;71.42
79465;BME280;68932;47.410;8.232;2023-09-30T04:07:05;97655.92;;;17.28;71.54
79465;BME280;68932;47.410;8.232;2023-09-30T04:09:33;97659.09;;;17.26;71.65
79465;BME280;68932;47.410;8.232;2023-09-30T04:12:01;97659.23;;;17.25;71.93
79465;BME280;68932;47.410;8.232;2023-09-30T04:14:29;97652.88;;;17.22;71.97
79465;BME280;68932;47.410;8.232;2023-09-30T04:16:58;97644.34;;;17.21;72.01
79465;BME280;68932;47.410;8.232;2023-09-30T04:19:26;97638.47;;;17.19;71.99
79465;BME280;68932;47.410;8.232;2023-09-30T04:21:54;97634.15;;;17.17;72.03
79465;BME280;68932;47.410;8.232;2023-09-30T04:24:22;97629.09;;;17.16;72.13
79465;BME280;68932;47.410;8.232;2023-09-30T04:26:51;97629.20;;;17.14;72.35
79465;BME280;68932;47.410;8.232;2023-09-30T04:29:19;97635.29;;;17.12;72.52
79465;BME280;68932;47.410;8.232;2023-09-30T04:31:47;97635.84;;;17.07;72.68
79465;BME280;68932;47.410;8.232;2023-09-30T04:34:16;97640.33;;;17.04;72.70
79465;BME280;68932;47.410;8.232;2023-09-30T04:36:44;97654.34;;;17.02;72.61
79465;BME280;68932;47.410;8.232;2023-09-30T04:39:12;97662.98;;;16.98;72.72
79465;BME280;68932;47.410;8.232;2023-09-30T04:41:40;97659.63;;;16.93;72.91
79465;BME280;68932;47.410;8.232;2023-09-30T04:44:09;97658.61;;;16.91;72.89
79465;BME280;68932;47.410;8.232;2023-09-30T04:46:37;97651.48;;;16.87;72.81
79465;BME280;68932;47.410;8.232;2023-09-30T04:49:05;97651.16;;;16.84;73.08
79465;BME280;68932;47.410;8.232;2023-09-30T04:51:34;97653.88;;;16.81;73.11
79465;BME280;68932;47.410;8.232;2023-09-30T04:54:02;97663.13;;;16.81;73.01
79465;BME280;68932;47.410;8.232;2023-09-30T04:56:31;97664.55;;;16.80;73.06
79465;BME280;68932;47.410;8.232;2023-09-30T04:58:59;97666.01;;;16.80;73.20
79465;BME280;68932;47.410;8.232;2023-09-30T05:01:28;97661.70;;;16.78;73.22
79465;BME280;68932;47.410;8.232;2023-09-30T05:03:56;97662.63;;;16.77;73.21
79465;BME280;68932;47.410;8.232;2023-09-30T05:06:25;97675.10;;;16.77;73.23
79465;BME280;68932;47.410;8.232;2023-09-30T05:08:53;97680.63;;;16.76;73.21
79465;BME280;68932;47.410;8.232;2023-09-30T05:11:21;97685.74;;;16.76;73.33
79465;BME280;68932;47.410;8.232;2023-09-30T05:13:50;97683.11;;;16.76;73.54
79465;BME280;68932;47.410;8.232;2023-09-30T05:16:18;97683.33;;;16.80;75.84
79465;BME280;68932;47.410;8.232;2023-09-30T05:18:47;97681.13;;;16.86;77.02
79465;BME280;68932;47.410;8.232;2023-09-30T05:21:15;97681.98;;;16.93;77.04
79465;BME280;68932;47.410;8.232;2023-09-30T05:23:43;97677.21;;;16.97;75.70
79465;BME280;68932;47.410;8.232;2023-09-30T05:26:12;97676.80;;;16.98;75.27
79465;BME280;68932;47.410;8.232;2023-09-30T05:28:40;97682.45;;;16.98;74.50
79465;BME280;68932;47.410;8.232;2023-09-30T05:31:08;97683.64;;;16.96;74.33
79465;BME280;68932;47.410;8.232;2023-09-30T05:33:37;97687.70;;;16.97;74.46
79465;BME280;68932;47.410;8.232;2023-09-30T05:36:05;97693.71;;;16.94;74.03
79465;BME280;68932;47.410;8.232;2023-09-30T05:38:34;97689.86;;;16.90;73.88
79465;BME280;68932;47.410;8.232;2023-09-30T05:41:02;97694.21;;;16.89;74.21
79465;BME280;68932;47.410;8.232;2023-09-30T05:43:30;97700.56;;;16.89;74.44
79465;BME280;68932;47.410;8.232;2023-09-30T05:45:59;97705.36;;;16.89;74.01
79465;BME280;68932;47.410;8.232;2023-09-30T05:48:27;97706.28;;;16.88;73.98
79465;BME280;68932;47.410;8.232;2023-09-30T05:50:55;97696.89;;;16.88;73.88
79465;BME280;68932;47.410;8.232;2023-09-30T05:53:23;97699.79;;;16.87;73.97
79465;BME280;68932;47.410;8.232;2023-09-30T05:55:52;97705.94;;;16.88;73.96
79465;BME280;68932;47.410;8.232;2023-09-30T05:58:20;97705.80;;;16.87;73.89
79465;BME280;68932;47.410;8.232;2023-09-30T06:00:48;97708.38;;;16.89;74.07
79465;BME280;68932;47.410;8.232;2023-09-30T06:03:16;97719.89;;;16.89;73.96
79465;BME280;68932;47.410;8.232;2023-09-30T06:05:45;97728.60;;;16.88;73.99
79465;BME280;68932;47.410;8.232;2023-09-30T06:08:13;97734.32;;;16.87;73.97
79465;BME280;68932;47.410;8.232;2023-09-30T06:10:43;97741.27;;;16.87;74.00
79465;BME280;68932;47.410;8.232;2023-09-30T06:13:12;97743.34;;;16.87;74.06
79465;BME280;68932;47.410;8.232;2023-09-30T06:15:41;97739.01;;;16.89;74.04
79465;BME280;68932;47.410;8.232;2023-09-30T06:18:10;97736.03;;;16.88;73.98
79465;BME280;68932;47.410;8.232;2023-09-30T06:20:38;97729.10;;;16.88;74.20
79465;BME280;68932;47.410;8.232;2023-09-30T06:23:06;97718.57;;;16.89;74.23
79465;BME280;68932;47.410;8.232;2023-09-30T06:25:34;97720.35;;;16.91;74.56
79465;BME280;68932;47.410;8.232;2023-09-30T06:28:03;97728.29;;;16.94;74.35
79465;BME280;68932;47.410;8.232;2023-09-30T06:30:31;97731.33;;;16.95;74.12
79465;BME280;68932;47.410;8.232;2023-09-30T06:33:01;97740.41;;;16.95;74.04
79465;BME280;68932;47.410;8.232;2023-09-30T06:35:29;97751.61;;;16.97;74.07
79465;BME280;68932;47.410;8.232;2023-09-30T06:37:58;97758.80;;;17.00;74.14
79465;BME280;68932;47.410;8.232;2023-09-30T06:40:26;97761.88;;;17.04;74.13
79465;BME280;68932;47.410;8.232;2023-09-30T06:42:54;97760.72;;;17.07;74.18
79465;BME280;68932;47.410;8.232;2023-09-30T06:45:22;97766.59;;;17.11;74.14
79465;BME280;68932;47.410;8.232;2023-09-30T06:47:51;97765.14;;;17.14;74.10
79465;BME280;68932;47.410;8.232;2023-09-30T06:50:19;97751.91;;;17.17;73.98
79465;BME280;68932;47.410;8.232;2023-09-30T06:52:47;97757.92;;;17.20;73.61
79465;BME280;68932;47.410;8.232;2023-09-30T06:55:16;97767.47;;;17.23;73.59
79465;BME280;68932;47.410;8.232;2023-09-30T06:57:44;97760.54;;;17.27;73.79
79465;BME280;68932;47.410;8.232;2023-09-30T07:00:14;97761.60;;;17.32;73.64
79465;BME280;68932;47.410;8.232;2023-09-30T07:02:42;97766.72;;;17.36;73.05
79465;BME280;68932;47.410;8.232;2023-09-30T07:05:12;97760.86;;;17.36;72.62
79465;BME280;68932;47.410;8.232;2023-09-30T07:07:41;97748.88;;;17.38;72.78
79465;BME280;68932;47.410;8.232;2023-09-30T07:10:11;97743.97;;;17.39;72.67
79465;BME280;68932;47.410;8.232;2023-09-30T07:12:39;97760.95;;;17.42;72.87
79465;BME280;68932;47.410;8.232;2023-09-30T07:15:10;97782.61;;;17.48;72.74
79465;BME280;68932;47.410;8.232;2023-09-30T07:17:38;97785.93;;;17.52;72.75
79465;BME280;68932;47.410;8.232;2023-09-30T07:20:08;97781.45;;;17.58;72.71
79465;BME280;68932;47.410;8.232;2023-09-30T07:22:37;97781.70;;;17.66;72.88
79465;BME280;68932;47.410;8.232;2023-09-30T07:25:06;97790.34;;;17.73;73.10
79465;BME280;68932;47.410;8.232;2023-09-30T07:27:34;97786.83;;;17.79;72.55
79465;BME280;68932;47.410;8.232;2023-09-30T07:30:03;97781.08;;;17.84;72.07
79465;BME280;68932;47.410;8.232;2023-09-30T07:32:32;97782.70;;;17.88;71.75
79465;BME280;68932;47.410;8.232;2023-09-30T07:35:00;97781.77;;;17.91;71.69
79465;BME280;68932;47.410;8.232;2023-09-30T07:37:28;97791.02;;;17.93;71.44
79465;BME280;68932;47.410;8.232;2023-09-30T07:39:57;97799.59;;;17.94;71.10
79465;BME280;68932;47.410;8.232;2023-09-30T07:42:25;97806.45;;;17.95;71.25
79465;BME280;68932;47.410;8.232;2023-09-30T07:44:53;97809.12;;;17.97;70.98
79465;BME280;68932;47.410;8.232;2023-09-30T07:47:21;97808.77;;;18.02;71.16
79465;BME280;68932;47.410;8.232;2023-09-30T07:49:50;97803.88;;;18.07;71.15
79465;BME280;68932;47.410;8.232;2023-09-30T07:52:18;97794.91;;;18.10;70.94
79465;BME280;68932;47.410;8.232;2023-09-30T07:54:46;97787.52;;;18.14;70.95
79465;BME280;68932;47.410;8.232;2023-09-30T07:57:15;97784.48;;;18.16;70.62
79465;BME280;68932;47.410;8.232;2023-09-30T07:59:43;97779.38;;;18.16;70.32
79465;BME280;68932;47.410;8.232;2023-09-30T08:02:11;97778.59;;;18.14;70.19
79465;BME280;68932;47.410;8.232;2023-09-30T08:04:39;97783.89;;;18.19;70.59
79465;BME280;68932;47.410;8.232;2023-09-30T08:07:08;97779.63;;;18.25;70.67
79465;BME280;68932;47.410;8.232;2023-09-30T08:09:36;97773.69;;;18.32;70.23
79465;BME280;68932;47.410;8.232;2023-09-30T08:12:05;97780.10;;;18.39;69.87
79465;BME280;68932;47.410;8.232;2023-09-30T08:14:33;97776.02;;;18.45;69.66
79465;BME280;68932;47.410;8.232;2023-09-30T08:17:02;97774.12;;;18.51;69.69
79465;BME280;68932;47.410;8.232;2023-09-30T08:19:30;97776.28;;;18.57;69.55
79465;BME280;68932;47.410;8.232;2023-09-30T08:21:58;97776.30;;;18.60;69.43
79465;BME280;68932;47.410;8.232;2023-09-30T08:24:28;97785.12;;;18.67;69.93
79465;BME280;68932;47.410;8.232;2023-09-30T08:26:56;97794.39;;;18.75;69.38
79465;BME280;68932;47.410;8.232;2023-09-30T08:29:24;97801.11;;;18.82;68.61
79465;BME280;68932;47.410;8.232;2023-09-30T08:31:53;97806.65;;;18.86;67.83
79465;BME280;68932;47.410;8.232;2023-09-30T08:34:21;97803.91;;;18.85;67.54
79465;BME280;68932;47.410;8.232;2023-09-30T08:36:49;97801.75;;;18.83;67.56
79465;BME280;68932;47.410;8.232;2023-09-30T08:39:17;97799.33;;;18.80;67.32
79465;BME280;68932;47.410;8.232;2023-09-30T08:41:46;97791.58;;;18.79;67.44
79465;BME280;68932;47.410;8.232;2023-09-30T08:44:15;97773.61;;;18.82;67.42
79465;BME280;68932;47.410;8.232;2023-09-30T08:46:43;97761.48;;;18.85;67.31
79465;BME280;68932;47.410;8.232;2023-09-30T08:49:12;97764.61;;;18.89;67.24
79465;BME280;68932;47.410;8.232;2023-09-30T08:51:42;97773.05;;;18.98;67.52
79465;BME280;68932;47.410;8.232;2023-09-30T08:54:11;97776.92;;;19.09;67.19
79465;BME280;68932;47.410;8.232;2023-09-30T08:56:41;97776.55;;;19.15;66.80
79465;BME280;68932;47.410;8.232;2023-09-30T08:59:13;97776.95;;;19.19;66.67
79465;BME280;68932;47.410;8.232;2023-09-30T09:01:42;97774.93;;;19.24;66.23
79465;BME280;68932;47.410;8.232;2023-09-30T09:04:11;97768.21;;;19.31;66.71
79465;BME280;68932;47.410;8.232;2023-09-30T09:06:40;97760.50;;;19.36;66.28
79465;BME280;68932;47.410;8.232;2023-09-30T09:09:18;97759.08;;;19.42;66.01
79465;BME280;68932;47.410;8.232;2023-09-30T09:11:47;97758.88;;;19.50;65.72
79465;BME280;68932;47.410;8.232;2023-09-30T09:14:16;97752.89;;;19.55;65.60
79465;BME280;68932;47.410;8.232;2023-09-30T09:16:55;97755.65;;;19.61;65.35
79465;BME280;68932;47.410;8.232;2023-09-30T09:19:23;97767.54;;;19.65;65.35
79465;BME280;68932;47.410;8.232;2023-09-30T09:21:58;97770.52;;;19.71;65.51
79465;BME280;68932;47.410;8.232;2023-09-30T09:24:31;97777.05;;;19.82;65.15
79465;BME280;68932;47.410;8.232;2023-09-30T09:27:08;97786.89;;;19.89;64.53
79465;BME280;68932;47.410;8.232;2023-09-30T09:29:37;97789.27;;;19.92;64.07
79465;BME280;68932;47.410;8.232;2023-09-30T09:32:13;97789.46;;;19.96;63.99
79465;BME280;68932;47.410;8.232;2023-09-30T09:34:43;97795.27;;;20.01;64.35
79465;BME280;68932;47.410;8.232;2023-09-30T09:37:20;97794.40;;;20.05;64.30
79465;BME280;68932;47.410;8.232;2023-09-30T09:42:36;97801.61;;;20.07;63.38
79465;BME280;68932;47.410;8.232;2023-09-30T09:45:06;97796.00;;;20.08;63.99
79465;BME280;68932;47.410;8.232;2023-09-30T09:47:35;97792.65;;;20.12;64.07
79465;BME280;68932;47.410;8.232;2023-09-30T09:50:06;97785.40;;;20.15;63.68
79465;BME280;68932;47.410;8.232;2023-09-30T09:52:35;97777.88;;;20.19;63.34
79465;BME280;68932;47.410;8.232;2023-09-30T09:55:08;97776.69;;;20.19;63.10
79465;BME280;68932;47.410;8.232;2023-09-30T09:57:38;97777.89;;;20.17;63.17
79465;BME280;68932;47.410;8.232;2023-09-30T10:00:13;97775.56;;;20.16;63.07
79465;BME280;68932;47.410;8.232;2023-09-30T10:02:43;97764.77;;;20.15;63.17
79465;BME280;68932;47.410;8.232;2023-09-30T10:05:11;97755.85;;;20.15;63.25
79465;BME280;68932;47.410;8.232;2023-09-30T10:07:44;97754.33;;;20.20;63.50
79465;BME280;68932;47.410;8.232;2023-09-30T10:10:16;97746.23;;;20.23;63.44
79465;BME280;68932;47.410;8.232;2023-09-30T10:12:45;97741.70;;;20.24;63.08
79465;BME280;68932;47.410;8.232;2023-09-30T10:15:40;97737.67;;;20.23;62.82
79465;BME280;68932;47.410;8.232;2023-09-30T10:18:09;97740.23;;;20.24;63.42
79465;BME280;68932;47.410;8.232;2023-09-30T10:20:39;97736.20;;;20.29;63.43
79465;BME280;68932;47.410;8.232;2023-09-30T10:23:25;97726.49;;;20.34;63.92
79465;BME280;68932;47.410;8.232;2023-09-30T10:26:13;97721.21;;;20.39;64.16
79465;BME280;68932;47.410;8.232;2023-09-30T10:28:43;97717.09;;;20.45;63.76
79465;BME280;68932;47.410;8.232;2023-09-30T10:31:14;97710.22;;;20.50;63.72
79465;BME280;68932;47.410;8.232;2023-09-30T10:34:19;97714.20;;;20.55;63.56
79465;BME280;68932;47.410;8.232;2023-09-30T10:36:49;97710.52;;;20.62;63.47
79465;BME280;68932;47.410;8.232;2023-09-30T10:39:56;97708.48;;;20.69;63.47
79465;BME280;68932;47.410;8.232;2023-09-30T10:42:48;97706.61;;;20.77;63.46
79465;BME280;68932;47.410;8.232;2023-09-30T10:45:43;97706.40;;;20.81;62.48
79465;BME280;68932;47.410;8.232;2023-09-30T10:48:37;97705.95;;;20.88;62.61
79465;BME280;68932;47.410;8.232;2023-09-30T10:51:16;97710.34;;;20.96;63.13
79465;BME280;68932;47.410;8.232;2023-09-30T10:53:47;97708.36;;;21.02;62.97
79465;BME280;68932;47.410;8.232;2023-09-30T10:56:16;97713.06;;;21.08;62.41
79465;BME280;68932;47.410;8.232;2023-09-30T10:58:46;97704.48;;;21.12;61.75
79465;BME280;68932;47.410;8.232;2023-09-30T11:01:17;97697.42;;;21.17;61.69
79465;BME280;68932;47.410;8.232;2023-09-30T11:03:46;97693.61;;;21.23;61.64
79465;BME280;68932;47.410;8.232;2023-09-30T11:06:16;97691.77;;;21.31;61.73
79465;BME280;68932;47.410;8.232;2023-09-30T11:08:48;97696.55;;;21.37;61.85
79465;BME280;68932;47.410;8.232;2023-09-30T11:11:18;97695.02;;;21.38;60.65
79465;BME280;68932;47.410;8.232;2023-09-30T11:13:47;97693.54;;;21.33;60.32
79465;BME280;68932;47.410;8.232;2023-09-30T11:16:15;97697.45;;;21.28;61.47
79465;BME280;68932;47.410;8.232;2023-09-30T11:18:44;97692.09;;;21.24;62.05
79465;BME280;68932;47.410;8.232;2023-09-30T11:21:12;97692.72;;;21.23;62.24
79465;BME280;68932;47.410;8.232;2023-09-30T11:23:42;97691.39;;;21.22;61.22
79465;BME280;68932;47.410;8.232;2023-09-30T11:26:10;97690.15;;;21.20;61.15
79465;BME280;68932;47.410;8.232;2023-09-30T11:28:40;97690.01;;;21.20;60.98
79465;BME280;68932;47.410;8.232;2023-09-30T11:31:13;97691.14;;;21.19;60.02
79465;BME280;68932;47.410;8.232;2023-09-30T11:33:52;97690.20;;;21.22;60.45
79465;BME280;68932;47.410;8.232;2023-09-30T11:36:22;97687.66;;;21.28;61.36
79465;BME280;68932;47.410;8.232;2023-09-30T11:38:52;97684.91;;;21.34;60.64
79465;BME280;68932;47.410;8.232;2023-09-30T11:41:20;97679.68;;;21.40;60.91
79465;BME280;68932;47.410;8.232;2023-09-30T11:44:03;97674.62;;;21.48;60.38
79465;BME280;68932;47.410;8.232;2023-09-30T11:46:32;97672.30;;;21.59;59.92
79465;BME280;68932;47.410;8.232;2023-09-30T11:49:01;97669.17;;;21.67;59.74
79465;BME280;68932;47.410;8.232;2023-09-30T11:51:34;97668.52;;;21.75;58.99
79465;BME280;68932;47.410;8.232;2023-09-30T11:54:10;97669.90;;;21.82;59.04
79465;BME280;68932;47.410;8.232;2023-09-30T11:56:38;97662.73;;;21.90;57.89
79465;BME280;68932;47.410;8.232;2023-09-30T11:59:07;97663.39;;;21.98;58.21
79465;BME280;68932;47.410;8.232;2023-09-30T12:01:35;97662.17;;;21.96;57.75
79465;BME280;68932;47.410;8.232;2023-09-30T12:04:04;97660.59;;;21.90;57.29
79465;BME280;68932;47.410;8.232;2023-09-30T12:06:33;97661.38;;;21.84;57.26
79465;BME280;68932;47.410;8.232;2023-09-30T12:09:01;97656.63;;;21.83;57.33
79465;BME280;68932;47.410;8.232;2023-09-30T12:11:30;97654.84;;;21.85;57.24
79465;BME280;68932;47.410;8.232;2023-09-30T12:13:58;97652.91;;;21.83;56.95
79465;BME280;68932;47.410;8.232;2023-09-30T12:16:26;97654.58;;;21.79;57.26
79465;BME280;68932;47.410;8.232;2023-09-30T12:18:55;97649.42;;;21.75;57.51
79465;BME280;68932;47.410;8.232;2023-09-30T12:21:23;97654.48;;;21.71;57.69
79465;BME280;68932;47.410;8.232;2023-09-30T12:23:52;97654.55;;;21.63;57.79
79465;BME280;68932;47.410;8.232;2023-09-30T12:26:20;97653.27;;;21.58;58.17
79465;BME280;68932;47.410;8.232;2023-09-30T12:28:48;97652.45;;;21.56;57.67
79465;BME280;68932;47.410;8.232;2023-09-30T12:31:17;97648.62;;;21.54;57.91
79465;BME280;68932;47.410;8.232;2023-09-30T12:33:45;97644.46;;;21.57;57.98
79465;BME280;68932;47.410;8.232;2023-09-30T12:36:14;97645.78;;;21.62;57.97
79465;BME280;68932;47.410;8.232;2023-09-30T12:38:42;97646.50;;;21.72;57.64
79465;BME280;68932;47.410;8.232;2023-09-30T12:41:10;97641.13;;;21.85;57.78
79465;BME280;68932;47.410;8.232;2023-09-30T12:43:39;97641.48;;;22.01;57.06
79465;BME280;68932;47.410;8.232;2023-09-30T12:46:08;97642.10;;;22.10;56.15
79465;BME280;68932;47.410;8.232;2023-09-30T12:48:36;97642.43;;;22.21;56.04
79465;BME280;68932;47.410;8.232;2023-09-30T12:51:04;97647.91;;;22.30;56.10
79465;BME280;68932;47.410;8.232;2023-09-30T12:53:33;97648.22;;;22.42;56.91
79465;BME280;68932;47.410;8.232;2023-09-30T12:56:01;97648.05;;;22.50;55.89
79465;BME280;68932;47.410;8.232;2023-09-30T12:58:30;97643.09;;;22.56;56.00
79465;BME280;68932;47.410;8.232;2023-09-30T13:01:00;97644.38;;;22.61;54.43
79465;BME280;68932;47.410;8.232;2023-09-30T13:03:28;97642.49;;;22.57;54.24
79465;BME280;68932;47.410;8.232;2023-09-30T13:05:57;97637.15;;;22.55;54.90
79465;BME280;68932;47.410;8.232;2023-09-30T13:08:25;97632.89;;;22.53;54.07
79465;BME280;68932;47.410;8.232;2023-09-30T13:10:54;97626.45;;;22.48;53.79
79465;BME280;68932;47.410;8.232;2023-09-30T13:13:22;97621.02;;;22.42;53.31
79465;BME280;68932;47.410;8.232;2023-09-30T13:15:51;97618.88;;;22.41;53.63